LKKV

Karlovy Vary International Airport

Karlovy Vary, Czech Republic
TAF LKKV 192300Z 2000/2106 VRB02KT 5000 BR BKN016 BECMG 2001/2003 3000 BR BKN009 TEMPO 2003/2008 0400 FG BKN002 BECMG 2009/2011 9999 BKN030 BECMG 2016/2018 SCT030
Issued Valid From Valid To
Oct-19 @ 23:00 UTC
(3 hours ago)
Oct-20 @ 00:00 UTC
(2 hours ago)
Oct-21 @ 06:00 UTC
(-1 days ago)
Expired Click to View Oct-20 @ 00:00 to Oct-20 @ 01:00
TAF LKKV 192300Z 2000/2106 VRB02KT 5000 BR BKN016
Wind Visibility Clouds Conditions
Variable at 2 knots 5,005 meters
  • Broken at 1,600' AGL
  • Mist
Becoming Oct-20 @ 01:00 to Oct-20 @ 09:00
BECMG 2001/2003 3000 BR BKN009
Wind Visibility Clouds Conditions
Variable at 2 knots 2,993 meters
  • Broken at 900' AGL
  • Mist
Temporary Oct-20 @ 03:00 to Oct-20 @ 08:00
TEMPO 2003/2008 0400 FG BKN002
Visibility Clouds Conditions
402 meters
  • Broken at 200' AGL
  • Fog
Becoming Oct-20 @ 09:00 to Oct-20 @ 16:00
BECMG 2009/2011 9999 BKN030
Wind Visibility Clouds Conditions
Variable at 2 knots 10,000+ meters
  • Broken at 3,000' AGL
  • Mist
Becoming Oct-20 @ 16:00 to Oct-21 @ 06:00
BECMG 2016/2018 SCT030
Wind Visibility Clouds Conditions
Variable at 2 knots 10,000+ meters
  • Scattered at 3,000' AGL
  • Mist
TAF LKKV 192300Z 2000/2106 VRB02KT 5000 BR BKN016 BECMG 2001/2003 3000 BR BKN009 TEMPO 2003/2008 0400 FG BKN002 BECMG 2009/2011 9999 BKN030 BECMG 2016/2018 SCT030
Issued Oct-19 @ 23:00 UTC
(3 hours ago)
Valid From Oct-20 @ 00:00 UTC
(2 hours ago)
Valid To Oct-21 @ 06:00 UTC
(-1 days ago)
Oct-20 @ 00:00 - Oct-20 @ 01:00
Wind Visibility
Variable at 2 knots 5,005 meters
Clouds
  • Broken at 1,600' AGL
Conditions
  • Mist
Becoming Oct-20 @ 01:00 - Oct-20 @ 09:00
Wind Visibility
Variable at 2 knots 2,993 meters
Clouds
  • Broken at 900' AGL
Conditions
  • Mist
Temporary Oct-20 @ 03:00 - Oct-20 @ 08:00
Clouds
  • Broken at 200' AGL
Conditions
  • Fog
Becoming Oct-20 @ 09:00 - Oct-20 @ 16:00
Wind Visibility
Variable at 2 knots 10,000+ meters
Clouds
  • Broken at 3,000' AGL
Conditions
  • Mist
Becoming Oct-20 @ 16:00 - Oct-21 @ 06:00
Wind Visibility
Variable at 2 knots 10,000+ meters
Clouds
  • Scattered at 3,000' AGL
Conditions
  • Mist